createdAt,value
2023-11-01T00:01:39.417Z,0
2023-11-01T00:07:59.442Z,0
2023-11-01T00:14:21.390Z,0
2023-11-01T00:20:40.459Z,0
2023-11-01T00:27:02.361Z,0
2023-11-01T00:33:22.515Z,0
2023-11-01T00:39:44.353Z,0
2023-11-01T00:46:03.615Z,0
2023-11-01T00:52:25.425Z,0
2023-11-01T00:58:45.428Z,0
2023-11-01T01:05:07.384Z,0
2023-11-01T01:11:27.417Z,0
2023-11-01T01:17:49.481Z,0
2023-11-01T01:24:09.404Z,0
2023-11-01T01:30:31.416Z,0
2023-11-01T01:36:50.392Z,0
2023-11-01T01:43:12.430Z,0
2023-11-01T01:49:33.325Z,0
2023-11-01T01:55:53.404Z,0
2023-11-01T02:02:13.430Z,0
2023-11-01T02:08:34.498Z,0
2023-11-01T02:14:54.351Z,0
2023-11-01T02:21:15.385Z,0
2023-11-01T02:27:35.391Z,0
2023-11-01T02:33:57.402Z,0
2023-11-01T02:40:17.368Z,0
2023-11-01T02:46:38.402Z,0
2023-11-01T02:52:58.402Z,0
2023-11-01T02:59:20.404Z,0
2023-11-01T03:05:40.413Z,0
2023-11-01T03:12:02.373Z,0
2023-11-01T03:18:22.429Z,0
2023-11-01T03:24:44.383Z,0
2023-11-01T03:48:05.913Z,0
2023-11-01T03:54:25.389Z,0
2023-11-01T04:00:46.384Z,0
2023-11-01T04:07:06.416Z,0
2023-11-01T04:13:28.379Z,0
2023-11-01T04:19:48.429Z,0
2023-11-01T04:26:10.481Z,0
2023-11-01T04:32:30.445Z,0
2023-11-01T04:38:52.370Z,0
2023-11-01T04:45:11.465Z,0
2023-11-01T04:51:33.351Z,0
2023-11-01T04:57:52.406Z,0
2023-11-01T05:04:14.448Z,0
2023-11-01T05:10:33.350Z,0
2023-11-01T05:16:54.407Z,0
2023-11-01T05:23:14.367Z,0
2023-11-01T05:29:35.436Z,0
2023-11-01T05:35:55.395Z,0
2023-11-01T05:42:16.393Z,0
2023-11-01T05:48:36.412Z,0
2023-11-01T05:55:04.404Z,0
2023-11-01T06:01:18.438Z,0
2023-11-01T06:07:40.353Z,0
2023-11-01T06:13:59.366Z,0
2023-11-01T06:20:20.425Z,0
2023-11-01T06:26:40.396Z,0
2023-11-01T06:33:02.430Z,0
2023-11-01T06:39:22.428Z,0
2023-11-01T06:45:44.363Z,0
2023-11-01T06:52:04.402Z,0
2023-11-01T06:58:26.400Z,0
2023-11-01T07:04:46.427Z,5.62
2023-11-01T07:11:08.364Z,5.62
2023-11-01T07:17:27.414Z,5.62
2023-11-01T07:23:49.428Z,5.62
2023-11-01T07:30:09.373Z,5.62
2023-11-01T07:36:30.421Z,5.62
2023-11-01T07:42:50.382Z,11.25
2023-11-01T07:49:11.437Z,16.88
2023-11-01T07:55:31.408Z,16.88
2023-11-01T08:01:53.386Z,16.88
2023-11-01T08:08:13.433Z,22.5
2023-11-01T08:14:35.421Z,28.12
2023-11-01T08:20:55.443Z,28.12
2023-11-01T08:27:17.415Z,28.12
2023-11-01T08:33:37.488Z,33.75
2023-11-01T08:39:59.459Z,22.5
2023-11-01T08:46:20.472Z,22.5
2023-11-01T08:52:42.716Z,22.5
2023-11-01T08:59:02.616Z,28.12
2023-11-01T09:15:10.901Z,28.12
2023-11-01T09:21:30.364Z,22.5
2023-11-01T09:27:51.416Z,22.5
2023-11-01T09:34:11.508Z,22.5
2023-11-01T09:40:33.468Z,16.88
2023-11-01T09:46:54.722Z,16.88
2023-11-01T09:53:16.552Z,28.12
2023-11-01T09:59:36.450Z,33.75
2023-11-01T10:05:58.433Z,28.12
2023-11-01T10:12:18.466Z,28.12
2023-11-01T10:18:40.386Z,39.38
2023-11-01T10:25:00.393Z,45
2023-11-01T10:31:24.848Z,33.75
2023-11-01T10:37:42.403Z,28.12
2023-11-01T10:44:04.405Z,28.12
2023-11-01T10:50:24.455Z,28.12
2023-11-01T10:56:46.399Z,33.75
2023-11-01T11:03:06.524Z,33.75
2023-11-01T11:09:28.432Z,33.75
2023-11-01T11:15:48.733Z,45
2023-11-01T11:22:10.406Z,39.38
2023-11-01T11:28:30.444Z,45
2023-11-01T11:34:52.602Z,45
2023-11-01T11:41:12.490Z,45
2023-11-01T11:47:34.678Z,33.75
2023-11-01T11:53:54.411Z,39.38
2023-11-01T12:00:16.441Z,39.38
2023-11-01T12:06:36.413Z,28.12
2023-11-01T12:12:58.472Z,33.75
2023-11-01T12:19:18.398Z,39.38
2023-11-01T12:25:40.657Z,33.75
2023-11-01T12:32:00.676Z,33.75
2023-11-01T12:38:22.386Z,33.75
2023-11-01T12:44:42.548Z,28.12
2023-11-01T12:51:04.518Z,22.5
2023-11-01T12:57:24.665Z,33.75
2023-11-01T13:03:46.516Z,33.75
2023-11-01T13:10:06.392Z,28.12
2023-11-01T13:16:27.436Z,22.5
2023-11-01T13:22:47.380Z,16.88
2023-11-01T13:29:08.407Z,16.88
2023-11-01T13:35:28.449Z,16.88
2023-11-01T13:41:50.410Z,22.5
2023-11-01T13:48:10.480Z,22.5
2023-11-01T13:54:32.682Z,16.88
2023-11-01T14:00:52.454Z,11.25
2023-11-01T14:07:14.441Z,11.25
2023-11-01T14:30:53.830Z,5.62
2023-11-01T14:37:13.393Z,5.62
2023-11-01T14:43:35.441Z,5.62
2023-11-01T14:49:55.478Z,5.62
2023-11-01T14:56:17.883Z,5.62
2023-11-01T15:02:37.430Z,5.62
2023-11-01T15:08:59.415Z,5.62
2023-11-01T15:15:19.426Z,0
2023-11-01T15:21:41.445Z,0
2023-11-01T15:28:01.475Z,0
2023-11-01T15:34:23.439Z,0
2023-11-01T15:40:43.390Z,0
2023-11-01T15:47:05.459Z,0
2023-11-01T15:53:25.364Z,0
2023-11-01T15:59:47.533Z,0
2023-11-01T16:06:07.532Z,0
2023-11-01T16:12:29.438Z,0
2023-11-01T16:18:49.495Z,0
2023-11-01T16:25:11.419Z,0
2023-11-01T16:31:30.384Z,0
2023-11-01T16:37:52.424Z,0
2023-11-01T16:44:12.399Z,0
2023-11-01T16:50:34.450Z,0
2023-11-01T16:56:54.392Z,0
2023-11-01T17:03:16.536Z,0
2023-11-01T17:09:36.390Z,0
2023-11-01T17:15:58.402Z,0
2023-11-01T17:22:18.467Z,0
2023-11-01T17:28:40.408Z,0
2023-11-01T17:35:00.404Z,0
2023-11-01T17:41:22.435Z,0
2023-11-01T17:47:42.448Z,0
2023-11-01T17:54:03.799Z,0
2023-11-01T18:00:23.444Z,0
2023-11-01T18:06:44.402Z,0
2023-11-01T18:13:04.344Z,0
2023-11-01T18:19:26.380Z,0
2023-11-01T18:25:46.408Z,0
2023-11-01T18:32:08.351Z,0
2023-11-01T18:38:27.412Z,0
2023-11-01T18:44:49.387Z,0
2023-11-01T18:51:09.390Z,0
2023-11-01T18:57:31.400Z,0
2023-11-01T19:03:51.405Z,0
2023-11-01T19:10:13.386Z,0
2023-11-01T19:16:33.386Z,0
2023-11-01T19:22:55.429Z,0
2023-11-01T19:29:15.355Z,0
2023-11-01T19:35:37.389Z,0
2023-11-01T19:58:39.933Z,0
2023-11-01T20:04:59.355Z,0
2023-11-01T20:11:21.406Z,0
2023-11-01T20:17:41.459Z,0
2023-11-01T20:24:03.439Z,0
2023-11-01T20:30:23.421Z,0
2023-11-01T20:36:45.426Z,0
2023-11-01T20:43:05.373Z,0
2023-11-01T20:49:27.394Z,0
2023-11-01T20:55:47.433Z,0
2023-11-01T21:02:09.404Z,0
2023-11-01T21:08:29.610Z,0
2023-11-01T21:14:51.435Z,0
2023-11-01T21:21:11.597Z,0
2023-11-01T21:27:33.384Z,0
2023-11-01T21:33:53.491Z,0
2023-11-01T21:40:15.397Z,0
2023-11-01T21:46:35.353Z,0
2023-11-01T21:52:56.423Z,0
2023-11-01T21:59:16.660Z,0
2023-11-01T22:05:38.454Z,0
2023-11-01T22:11:58.395Z,0
2023-11-01T22:18:19.395Z,0
2023-11-01T22:24:39.374Z,0
2023-11-01T22:31:01.390Z,0
2023-11-01T22:37:21.391Z,0
2023-11-01T22:43:43.372Z,0
2023-11-01T22:50:02.596Z,0
2023-11-01T22:56:24.455Z,0
2023-11-01T23:20:38.420Z,0
2023-11-01T23:26:58.357Z,0
2023-11-01T23:33:20.569Z,0
2023-11-01T23:39:40.387Z,0
2023-11-01T23:46:02.418Z,0
2023-11-01T23:52:22.385Z,0
2023-11-01T23:58:44.670Z,0
